Etusivu
METAR-TAF:

METAR-TAF

Lentoasemat :

Tan Son Nhatin kansainvälinen lentoasema

Hồ Chí Minhin kaupunki, Vietnam

Leveyspiiri: 10-49N, Pituuspiiri: 106-40E, korkeus merenpinnasta: 19 m

Tämänhetkinen sää

Tämä raportti tehtiin 19 minuuttia sitten, kello 16.00 UTC
Tuuli 7 kn kaakosta, vaihdellen idän/kaakon ja etelän välillä
Lämpötila 26°C
Kosteus 79%
Ilmanpaine 1009 hPa
Näkyvyys: 8000 m
Muutamia pilviä 1700 ft:n korkeudessa

METAR: VVTS 271600Z 14007KT 110V180 8000 FEW017 26/22 Q1009 NOSIG

Aika: 23:19 (16:19 UTC)

Sääennuste

Tämä raportti tehtiin 5 tuntia ja 19 minuuttia sitten, kello 11.00 UTC
Ennuste voimassa 27. päivästä klo 12 UTC - 28. päivään klo 18 UTC
Tuuli 7 kn etelästä
Näkyvyys 10 km tai enemmän
Hajanaisia pilviä 1700 ft:n korkeudessa

TAF: VVTS 271100Z 2712/2818 17007KT 9999 SCT017

Säähavainnot ja -ennusteet yli 4000 lentoasemalta (METAR- ja TAF-raportit).

Käytössä olevat sääasemat on merkitty karttaan keltaisilla ja punaisilla pisteillä.

Aseta hiiri pisteen päälle nähdäksesi sääaseman nimen.

Klikkaa sitten nähdäksesi säähavainnot ja -ennusteet.

Kartan vaihtaminen: klikkaa mustalla rastilla varustettuja vihreitä pisteitä, niin voit zoomata sisään; viivalla varustettua vihreää pistettä, niin voit zoomata ulos tai vihreitä nuolia, niin pääset viereisille kartoille.


METAR-TAF: